SBKG/CPV METAR and TAF weather

Enter ICAO airport designator
Station Type Date Time Source
SBKG METAR 2022/07/03 15:00 UTC NOAA

SBKG 031500Z 15011KT 9999 SCT018 SCT019 BKN080 24/19 Q1020


Station Type Date Time Source
SBKG Decoded METAR 2022/07/03 15:00 UTC NOAA

Campina Grande, Brazil (SBKG) 07-13S 035-53W
Jul 03, 2022 - 11:00 AM EDT / 2022.07.03 1500 UTC
Wind: from the SSE (150 degrees) at 13 MPH (11 KT):0
Visibility: greater than 7 mile(s):0
Sky conditions: mostly cloudy
Temperature: 75 F (24 C)
Dew Point: 66 F (19 C)
Relative Humidity: 73%
Pressure (altimeter): 30.12 in. Hg (1020 hPa)
ob: SBKG 031500Z 15011KT 9999 SCT018 SCT019 BKN080 24/19 Q1020
cycle: 15

Station Type Date Time Source
SBKG TAF 2022/07/03 12:27 UTC NOAA

TAF SBKG 030845Z 0312/0324 17020KT 7000 BKN015 TX26/0315Z TN21/0323Z
BECMG 0315/0317 14015KT PROB40 0317/0321 4000 SHRA BKN012 FEW023TCU
BECMG 0322/0324 17010KT
RMK PGB

Example: see airport list